Terminal Aerodrome Forecast
Issued by NWS Sioux Falls, SD

Home | Current Version | Previous Version | Graphics & Text | Print | Product List | Glossary Off
Versions: 1 2 3 4 5 6 7 8 9 10 11 12 13 14 15 16

000
FTUS43 KFSD 201700
TAFFSD
TAF
KFSD 201738Z 2018/2118 12010KT P6SM SCT120
     FM210000 15005KT P6SM SCT070 BKN100
     FM210400 VRB03KT P6SM BKN070
     FM210800 34009KT P6SM SCT070
     FM211400 35017G26KT P6SM SKC=

USA.gov is the U.S. government's official web portal to all federal, state and local government web resources and services.